Time;durP1;ratioP1;P1;durP2;ratioP2;P2;SDS_P1;SDS_P2;PMS_P1;PMS_P2;Temp;Humidity;BMP_temperature;BMP_pressure;BME280_temperature;BME280_humidity;BME280_pressure;Samples;Min_cycle;Max_cycle;Signal;HPM_P1;HPM_P2
2022/12/08 00:00:39;;;;;;;8.25;5.32;;;;;;;-5.51;100.00;92479.59;2139703;27;20594;-72
2022/12/08 00:01:40;;;;;;;8.93;4.75;;;;;;;-5.48;100.00;92484.16;2140661;27;20050;-73
2022/12/08 00:02:43;;;;;;;7.15;5.40;;;;;;;-5.53;100.00;92485.16;2140526;27;20067;-73
2022/12/08 00:03:44;;;;;;;8.48;5.30;;;;;;;-5.54;100.00;92478.41;2140536;27;20026;-73
2022/12/08 00:10:05;;;;;;;8.00;4.80;;;;;;;-5.49;100.00;92483.38;2131313;27;20033;-73
2022/12/08 00:11:12;;;;;;;10.07;5.65;;;;;;;-5.43;100.00;92484.69;2137154;27;20105;-73
2022/12/08 00:12:16;;;;;;;10.85;5.90;;;;;;;-5.49;100.00;92478.19;2140652;27;20428;-73
2022/12/08 00:13:17;;;;;;;10.52;5.75;;;;;;;-5.54;100.00;92478.41;2140389;27;20063;-73
2022/12/08 00:14:19;;;;;;;7.93;5.28;;;;;;;-5.63;100.00;92477.78;2140453;27;20936;-73
2022/12/08 00:15:20;;;;;;;8.55;5.20;;;;;;;-5.54;100.00;92472.44;2131019;27;20644;-72
2022/12/08 00:16:22;;;;;;;8.27;5.40;;;;;;;-5.78;100.00;92466.25;2121500;27;20047;-73
2022/12/08 00:17:23;;;;;;;9.00;5.50;;;;;;;-5.78;100.00;92463.63;2130921;27;20398;-73
2022/12/08 00:18:24;;;;;;;11.40;5.63;;;;;;;-5.65;100.00;92470.31;2131702;27;20027;-73
2022/12/08 00:19:26;;;;;;;7.88;5.53;;;;;;;-5.55;100.00;92461.28;2131515;27;20027;-74
2022/12/08 00:20:27;;;;;;;9.98;5.05;;;;;;;-5.58;100.00;92461.94;2131685;27;20031;-74
2022/12/08 00:21:28;;;;;;;8.73;5.80;;;;;;;-5.65;100.00;92467.72;2125821;27;20360;-73
2022/12/08 00:22:31;;;;;;;8.63;5.57;;;;;;;-5.67;100.00;92462.06;2122856;27;20023;-75
2022/12/08 00:23:32;;;;;;;8.82;5.63;;;;;;;-5.64;100.00;92465.88;2122249;27;20119;-75
2022/12/08 00:24:37;;;;;;;6.93;5.43;;;;;;;-5.61;100.00;92460.00;2123208;27;21013;-75
2022/12/08 00:25:38;;;;;;;9.10;5.15;;;;;;;-5.63;100.00;92456.97;2131684;27;20042;-74
2022/12/08 00:26:39;;;;;;;8.40;5.25;;;;;;;-5.66;100.00;92461.00;2125987;27;20441;-75
2022/12/08 00:27:40;;;;;;;11.18;5.25;;;;;;;-5.68;100.00;92462.41;2123461;27;20047;-75
2022/12/08 00:28:41;;;;;;;10.60;5.35;;;;;;;-5.70;100.00;92454.19;2122780;27;20436;-73
2022/12/08 00:29:43;;;;;;;7.57;5.43;;;;;;;-5.74;100.00;92456.69;2123019;27;20024;-75
2022/12/08 00:30:44;;;;;;;9.70;5.18;;;;;;;-5.74;100.00;92455.94;2122437;27;20523;-73
2022/12/08 00:31:45;;;;;;;12.05;5.30;;;;;;;-5.80;100.00;92458.00;2114093;27;20525;-75
2022/12/08 00:32:46;;;;;;;8.77;5.28;;;;;;;-5.70;100.00;92454.19;2122739;27;20019;-73
2022/12/08 00:33:47;;;;;;;8.48;5.07;;;;;;;-5.75;100.00;92449.97;2123151;27;20413;-73
2022/12/08 00:34:48;;;;;;;7.55;5.03;;;;;;;-5.74;100.00;92455.94;2124839;27;20026;-73
2022/12/08 00:35:49;;;;;;;6.93;4.88;;;;;;;-5.74;100.00;92450.72;2130887;27;20466;-75
2022/12/08 00:36:50;;;;;;;7.78;5.05;;;;;;;-5.74;100.00;92451.47;2131193;27;20380;-73
2022/12/08 00:37:51;;;;;;;8.38;4.72;;;;;;;-5.76;100.00;92453.63;2131846;27;20474;-76
2022/12/08 00:38:52;;;;;;;6.22;4.55;;;;;;;-5.84;100.00;92451.94;2131440;27;20030;-74
2022/12/08 00:39:52;;;;;;;8.10;4.45;;;;;;;-5.91;100.00;92451.75;2131940;27;20097;-73
2022/12/08 00:40:53;;;;;;;6.32;4.68;;;;;;;-5.84;100.00;92447.50;2131183;27;20498;-74
2022/12/08 00:42:12;;;;;;;7.50;4.47;;;;;;;-5.80;100.00;92447.59;2130453;27;20054;-73
2022/12/08 00:43:13;;;;;;;7.57;4.82;;;;;;;-5.88;100.00;92449.25;2130832;27;20033;-73
2022/12/08 00:44:17;;;;;;;7.82;4.55;;;;;;;-5.86;100.00;92451.50;2130961;27;20514;-73
2022/12/08 00:45:18;;;;;;;6.68;4.50;;;;;;;-5.90;100.00;92446.19;2131708;27;20431;-75
2022/12/08 00:46:19;;;;;;;8.30;5.13;;;;;;;-5.88;100.00;92451.09;2131519;27;20022;-75
2022/12/08 00:47:20;;;;;;;7.38;4.57;;;;;;;-5.76;100.00;92447.69;2126279;27;20078;-73
2022/12/08 00:48:21;;;;;;;7.63;4.75;;;;;;;-5.76;100.00;92437.28;2122346;27;20011;-76
2022/12/08 00:49:22;;;;;;;7.03;4.85;;;;;;;-5.80;100.00;92439.78;2123274;27;20506;-74
2022/12/08 00:50:23;;;;;;;7.72;4.60;;;;;;;-5.91;100.00;92438.72;2122468;27;20220;-73
2022/12/08 00:51:24;;;;;;;6.63;4.65;;;;;;;-5.89;100.00;92434.69;2122256;27;20023;-74
2022/12/08 00:52:25;;;;;;;6.72;4.70;;;;;;;-5.89;100.00;92432.09;2125511;27;20748;-75
2022/12/08 00:53:26;;;;;;;6.53;4.85;;;;;;;-5.91;100.00;92433.53;2130365;27;20604;-73
2022/12/08 00:54:26;;;;;;;5.20;4.18;;;;;;;-5.85;100.00;92442.59;2130852;27;20523;-73
2022/12/08 00:55:28;;;;;;;6.78;4.47;;;;;;;-5.84;100.00;92438.91;2130954;27;20477;-73
2022/12/08 00:56:29;;;;;;;7.22;4.68;;;;;;;-5.87;100.00;92435.16;2131037;27;20015;-73
2022/12/08 00:57:30;;;;;;;7.57;4.53;;;;;;;-5.90;100.00;92427.22;2128713;27;20454;-73
2022/12/08 00:58:31;;;;;;;7.38;4.28;;;;;;;-6.03;100.00;92436.94;2122701;27;20363;-73
2022/12/08 00:59:32;;;;;;;7.53;4.32;;;;;;;-6.07;100.00;92432.72;2122508;27;20112;-72
2022/12/08 01:00:33;;;;;;;6.22;4.28;;;;;;;-6.06;100.00;92432.38;2122622;27;20019;-73
2022/12/08 01:01:35;;;;;;;6.88;4.43;;;;;;;-6.05;100.00;92430.56;2122872;27;20034;-73
2022/12/08 01:02:36;;;;;;;6.43;4.18;;;;;;;-5.99;100.00;92435.19;2123819;27;20231;-73
2022/12/08 01:03:37;;;;;;;5.35;4.03;;;;;;;-5.98;100.00;92428.16;2131488;27;20030;-73
2022/12/08 01:04:38;;;;;;;8.05;4.38;;;;;;;-5.97;100.00;92427.06;2131531;27;20045;-73
2022/12/08 01:05:39;;;;;;;7.63;4.68;;;;;;;-6.06;100.00;92426.44;2131457;27;20116;-75
2022/12/08 01:06:40;;;;;;;6.28;4.18;;;;;;;-6.20;100.00;92424.94;2130946;27;20047;-74
2022/12/08 01:07:41;;;;;;;6.38;4.20;;;;;;;-6.13;100.00;92424.41;2130206;27;20031;-74
2022/12/08 01:08:43;;;;;;;6.25;4.13;;;;;;;-6.04;100.00;92426.88;2123130;27;20433;-74
2022/12/08 01:09:43;;;;;;;6.82;4.20;;;;;;;-6.05;100.00;92431.31;2122776;27;20023;-73
2022/12/08 01:10:44;;;;;;;7.22;4.47;;;;;;;-6.09;100.00;92426.00;2122392;27;20031;-74
2022/12/08 01:11:46;;;;;;;5.88;4.38;;;;;;;-6.06;100.00;92429.03;2122409;27;20019;-76
2022/12/08 01:12:47;;;;;;;6.85;4.00;;;;;;;-6.17;100.00;92428.75;2122375;27;20026;-74
2022/12/08 01:13:48;;;;;;;6.20;3.97;;;;;;;-6.03;100.00;92433.59;2122320;27;20433;-76
2022/12/08 01:14:49;;;;;;;7.30;4.10;;;;;;;-6.03;100.00;92426.53;2122914;27;20023;-74
2022/12/08 01:15:50;;;;;;;6.88;4.13;;;;;;;-6.01;100.00;92434.78;2122462;27;20661;-72
2022/12/08 01:16:51;;;;;;;5.57;4.40;;;;;;;-5.99;100.00;92434.44;2122336;27;20019;-75
2022/12/08 01:17:52;;;;;;;7.15;4.22;;;;;;;-6.07;100.00;92436.06;2127387;27;20074;-73
2022/12/08 01:18:53;;;;;;;6.07;4.00;;;;;;;-6.11;100.00;92433.38;2128343;27;20030;-73
2022/12/08 01:19:54;;;;;;;5.97;3.95;;;;;;;-6.11;100.00;92432.63;2121980;27;20016;-73
2022/12/08 01:21:04;;;;;;;7.50;3.80;;;;;;;-6.17;100.00;92424.28;2130791;27;20033;-75
2022/12/08 01:22:05;;;;;;;7.28;4.20;;;;;;;-6.23;100.00;92428.22;2140023;27;20432;-72
2022/12/08 01:23:06;;;;;;;4.72;3.35;;;;;;;-6.27;100.00;92424.75;2139708;27;20038;-73
2022/12/08 01:24:13;;;;;;;6.70;3.85;;;;;;;-6.24;100.00;92425.91;2131681;27;20440;-73
2022/12/08 01:25:14;;;;;;;6.20;4.15;;;;;;;-6.21;100.00;92428.63;2130599;27;20544;-74
2022/12/08 01:26:16;;;;;;;6.65;3.75;;;;;;;-6.23;100.00;92425.63;2130681;27;20419;-72
2022/12/08 01:27:17;;;;;;;5.15;4.07;;;;;;;-6.16;100.00;92423.19;2131153;27;20909;-72
2022/12/08 01:28:18;;;;;;;7.35;3.90;;;;;;;-6.21;100.00;92415.63;2131026;27;20419;-72
2022/12/08 01:29:19;;;;;;;6.72;4.07;;;;;;;-6.22;100.00;92419.31;2121910;27;20019;-72
2022/12/08 01:30:20;;;;;;;7.50;3.72;;;;;;;-6.17;100.00;92419.09;2122122;27;20070;-72
2022/12/08 01:31:22;;;;;;;6.63;4.18;;;;;;;-6.20;100.00;92413.78;2131350;27;20049;-73
2022/12/08 01:32:23;;;;;;;5.95;4.25;;;;;;;-6.30;100.00;92406.44;2130364;27;20766;-72
2022/12/08 01:33:25;;;;;;;6.78;4.10;;;;;;;-6.38;100.00;92405.47;2121165;27;20449;-72
2022/12/08 01:34:25;;;;;;;5.97;3.75;;;;;;;-6.35;100.00;92410.78;2128315;27;20029;-72
2022/12/08 01:35:26;;;;;;;7.40;4.32;;;;;;;-6.28;100.00;92410.22;2140016;27;20443;-72
2022/12/08 01:36:30;;;;;;;7.57;4.07;;;;;;;-6.23;100.00;92415.22;2139964;27;20018;-72
2022/12/08 01:37:31;;;;;;;6.22;3.88;;;;;;;-6.23;100.00;92411.81;2139362;27;20030;-72
2022/12/08 01:38:32;;;;;;;7.47;3.90;;;;;;;-6.20;100.00;92418.97;2130751;27;20447;-72
2022/12/08 01:39:33;;;;;;;6.45;4.30;;;;;;;-6.27;100.00;92419.56;2132878;27;20019;-72
2022/12/08 01:40:34;;;;;;;6.50;3.70;;;;;;;-6.29;100.00;92413.91;2135385;27;20443;-72
2022/12/08 01:41:37;;;;;;;5.07;3.80;;;;;;;-6.41;100.00;92421.72;2133159;27;20956;-75
2022/12/08 01:42:37;;;;;;;7.82;3.65;;;;;;;-6.39;100.00;92417.72;2122002;27;20027;-72
2022/12/08 01:44:09;;;;;;;6.65;3.85;;;;;;;-6.34;100.00;92420.09;2121384;27;20425;-73
2022/12/08 01:45:30;;;;;;;5.22;3.88;;;;;;;-6.36;100.00;92417.06;2101285;27;20086;-74
2022/12/08 01:46:32;;;;;;;7.18;3.55;;;;;;;-6.29;100.00;92420.94;2131025;27;20765;-72
2022/12/08 01:47:40;;;;;;;5.75;4.03;;;;;;;-6.26;100.00;92420.31;2133004;27;20458;-72
2022/12/08 01:48:41;;;;;;;6.15;3.47;;;;;;;-6.26;100.00;92420.31;2139556;27;20435;-73
2022/12/08 01:49:42;;;;;;;5.78;3.88;;;;;;;-6.26;100.00;92425.50;2125519;27;20448;-73
2022/12/08 01:50:43;;;;;;;7.13;4.35;;;;;;;-6.25;100.00;92425.16;2124021;27;20018;-73
2022/12/08 01:52:12;;;;;;;5.97;3.83;;;;;;;-6.26;100.00;92422.91;2122009;27;20447;-72
2022/12/08 01:53:21;;;;;;;6.35;3.72;;;;;;;-6.32;100.00;92419.00;2126207;27;20424;-73
2022/12/08 01:54:25;;;;;;;5.15;3.42;;;;;;;-6.36;100.00;92416.31;2130376;27;20436;-72
2022/12/08 01:55:38;;;;;;;4.85;3.47;;;;;;;-6.32;100.00;92422.38;2130955;27;20412;-72
2022/12/08 01:57:07;;;;;;;5.80;3.65;;;;;;;-6.24;100.00;92418.88;2131095;27;20430;-73
2022/12/08 01:58:17;;;;;;;5.65;3.20;;;;;;;-6.21;100.00;92423.44;2130991;27;20408;-72
2022/12/08 01:59:18;;;;;;;6.00;3.40;;;;;;;-6.36;100.00;92421.50;2130741;27;20451;-72
2022/12/08 02:00:21;;;;;;;4.25;3.38;;;;;;;-6.35;100.00;92417.81;2135208;27;20439;-73
2022/12/08 02:01:22;;;;;;;6.07;3.35;;;;;;;-6.40;100.00;92411.00;2139723;27;20427;-72
2022/12/08 02:02:28;;;;;;;7.25;3.75;;;;;;;-6.43;100.00;92418.69;2139450;27;20916;-72
2022/12/08 02:03:57;;;;;;;5.40;3.58;;;;;;;-6.32;100.00;92417.19;2139521;27;20427;-72
2022/12/08 02:04:59;;;;;;;4.60;3.42;;;;;;;-6.34;100.00;92414.88;2127851;27;20448;-74
2022/12/08 02:06:01;;;;;;;4.80;3.45;;;;;;;-6.26;100.00;92421.06;2130761;27;20486;-72
2022/12/08 02:07:04;;;;;;;5.30;3.63;;;;;;;-6.27;100.00;92409.16;2131012;27;21026;-73
2022/12/08 02:08:08;;;;;;;5.75;3.30;;;;;;;-6.25;100.00;92406.97;2130941;27;20403;-72
2022/12/08 02:09:09;;;;;;;7.22;3.50;;;;;;;-6.24;100.00;92411.06;2124394;27;20464;-72
2022/12/08 02:10:15;;;;;;;5.30;3.28;;;;;;;-6.24;100.00;92411.06;2126415;27;20066;-72
2022/12/08 02:11:16;;;;;;;5.30;3.33;;;;;;;-6.28;100.00;92404.25;2135837;27;20505;-71
2022/12/08 02:12:17;;;;;;;6.90;3.40;;;;;;;-6.27;100.00;92416.19;2134411;27;20560;-72
2022/12/08 02:13:20;;;;;;;5.95;3.45;;;;;;;-6.25;100.00;92403.59;2133660;27;20034;-73
2022/12/08 02:14:21;;;;;;;5.00;3.22;;;;;;;-6.22;100.00;92403.72;2130823;27;20133;-74
2022/12/08 02:15:39;;;;;;;4.05;3.10;;;;;;;-6.19;100.00;92404.88;2132316;27;20436;-73
2022/12/08 02:17:03;;;;;;;4.53;3.08;;;;;;;-6.27;100.00;92403.94;2140042;27;20757;-73
2022/12/08 02:18:12;;;;;;;4.18;2.97;;;;;;;-6.27;100.00;92403.19;2139778;27;20451;-74
2022/12/08 02:19:49;;;;;;;4.80;3.05;;;;;;;-6.30;100.00;92398.63;2140123;27;20448;-74
2022/12/08 02:21:17;;;;;;;5.22;2.95;;;;;;;-6.48;100.00;92392.94;2133904;27;20484;-75
2022/12/08 02:22:39;;;;;;;4.47;2.78;;;;;;;-6.37;100.00;92397.34;2130986;27;20917;-75
2022/12/08 02:23:46;;;;;;;5.82;3.30;;;;;;;-6.36;100.00;92390.31;2130743;27;20796;-75
2022/12/08 02:24:56;;;;;;;3.75;2.72;;;;;;;-6.36;100.00;92395.50;2130612;27;20432;-72
2022/12/08 02:26:22;;;;;;;4.30;2.85;;;;;;;-6.34;100.00;92395.94;2132427;27;20439;-73
2022/12/08 02:27:36;;;;;;;5.25;2.75;;;;;;;-6.32;100.00;92396.38;2130694;27;20091;-72
2022/12/08 02:28:51;;;;;;;4.60;2.80;;;;;;;-6.37;100.00;92394.72;2130940;27;20459;-75
2022/12/08 02:30:20;;;;;;;5.25;2.90;;;;;;;-6.30;100.00;92396.78;2121483;27;20515;-73
2022/12/08 02:31:43;;;;;;;4.10;2.67;;;;;;;-6.33;100.00;92392.25;2125858;27;20448;-74
2022/12/08 02:33:08;;;;;;;5.00;2.75;;;;;;;-6.48;100.00;92391.09;2130622;27;20026;-73
2022/12/08 02:34:50;;;;;;;5.55;2.80;;;;;;;-6.44;100.00;92381.56;2130608;27;20503;-74
2022/12/08 02:36:04;;;;;;;4.57;2.75;;;;;;;-6.37;100.00;92391.38;2130728;27;20465;-72
2022/12/08 02:37:31;;;;;;;4.35;2.50;;;;;;;-6.45;100.00;92387.06;2130867;27;20526;-73
2022/12/08 02:38:48;;;;;;;4.45;2.53;;;;;;;-6.37;100.00;92381.72;2099819;28;20451;-72
2022/12/08 02:39:57;;;;;;;3.50;2.63;;;;;;;-6.33;100.00;92384.44;2130705;27;20436;-72
2022/12/08 02:41:17;;;;;;;4.35;2.83;;;;;;;-6.32;100.00;92382.59;2130746;27;20424;-74
2022/12/08 02:42:31;;;;;;;3.88;2.17;;;;;;;-6.24;100.00;92379.13;2131045;27;20042;-74
2022/12/08 02:43:54;;;;;;;4.25;2.47;;;;;;;-6.21;100.00;92387.03;2130607;27;20114;-74
2022/12/08 02:45:05;;;;;;;3.92;2.55;;;;;;;-6.20;100.00;92387.78;2121230;28;20420;-73
2022/12/08 02:46:34;;;;;;;4.88;2.50;;;;;;;-6.21;100.00;92379.22;2122931;27;20477;-74
2022/12/08 02:47:36;;;;;;;3.10;2.60;;;;;;;-6.20;100.00;92377.38;2130732;27;20511;-75
2022/12/08 02:48:38;;;;;;;5.07;2.38;;;;;;;-6.18;100.00;92378.56;2130774;27;20445;-74
2022/12/08 02:49:39;;;;;;;3.78;2.90;;;;;;;-6.14;100.00;92387.22;2130725;27;20431;-72
2022/12/08 02:50:40;;;;;;;4.60;2.95;;;;;;;-6.09;100.00;92381.03;2130265;27;20822;-72
2022/12/08 02:51:41;;;;;;;4.18;2.58;;;;;;;-6.05;100.00;92374.09;2130339;27;20051;-72
2022/12/08 02:52:44;;;;;;;3.55;2.70;;;;;;;-6.00;100.00;92367.91;2130954;27;20023;-74
2022/12/08 02:53:46;;;;;;;3.58;2.70;;;;;;;-5.98;100.00;92376.88;2130577;27;20420;-73
2022/12/08 02:54:57;;;;;;;4.80;2.75;;;;;;;-5.98;100.00;92370.91;2130586;27;20443;-72
2022/12/08 02:56:16;;;;;;;4.25;2.65;;;;;;;-5.95;100.00;92375.47;2130730;27;20455;-72
2022/12/08 02:57:33;;;;;;;4.40;2.55;;;;;;;-5.94;100.00;92366.56;2133577;27;20101;-74
2022/12/08 02:58:59;;;;;;;6.57;2.67;;;;;;;-5.91;100.00;92363.28;2139066;27;21041;-73
2022/12/08 03:00:12;;;;;;;5.00;2.63;;;;;;;-5.81;100.00;92365.41;2127753;27;21033;-73
2022/12/08 03:01:48;;;;;;;3.90;2.65;;;;;;;-5.74;100.00;92365.59;2139273;27;20427;-72
2022/12/08 03:03:19;;;;;;;4.35;3.00;;;;;;;-5.72;100.00;92355.59;2132534;27;20435;-74
2022/12/08 03:04:32;;;;;;;3.13;2.25;;;;;;;-5.66;100.00;92356.91;2131095;27;20925;-74
2022/12/08 03:05:39;;;;;;;5.65;3.05;;;;;;;-5.68;100.00;92356.47;2121628;28;20440;-73
2022/12/08 03:06:54;;;;;;;5.70;3.13;;;;;;;-5.62;100.00;92362.94;2122665;27;20485;-73
2022/12/08 03:08:11;;;;;;;3.30;2.47;;;;;;;-5.50;100.00;92350.94;2135542;27;20452;-73
2022/12/08 03:09:36;;;;;;;4.38;2.78;;;;;;;-5.53;100.00;92355.00;2130674;27;20415;-73
2022/12/08 03:10:45;;;;;;;4.68;2.75;;;;;;;-5.44;100.00;92357.44;2130529;27;20770;-75
2022/12/08 03:11:49;;;;;;;4.72;2.90;;;;;;;-5.43;100.00;92351.13;2132250;27;20532;-73
2022/12/08 03:13:07;;;;;;;4.80;3.00;;;;;;;-5.39;100.00;92344.16;2132575;27;20023;-72
2022/12/08 03:14:13;;;;;;;4.38;2.45;;;;;;;-5.38;100.00;92345.69;2131816;27;20475;-73
2022/12/08 03:15:17;;;;;;;3.72;2.42;;;;;;;-5.36;100.00;92346.09;2127123;27;20027;-73
2022/12/08 03:16:27;;;;;;;4.75;3.00;;;;;;;-5.32;100.00;92345.06;2123641;27;20066;-73
2022/12/08 03:17:30;;;;;;;4.38;3.17;;;;;;;-5.35;100.00;92345.75;2131574;27;20432;-73
2022/12/08 03:18:36;;;;;;;4.60;2.83;;;;;;;-5.39;100.00;92341.56;2131135;27;20091;-73
2022/12/08 03:19:40;;;;;;;4.00;2.78;;;;;;;-5.37;100.00;92341.97;2131755;27;20031;-73
2022/12/08 03:20:44;;;;;;;8.20;2.83;;;;;;;-5.34;100.00;92336.84;2131949;27;20038;-73
2022/12/08 03:21:50;;;;;;;3.63;2.70;;;;;;;-5.30;100.00;92339.56;2132199;27;20030;-74
2022/12/08 03:22:56;;;;;;;3.20;2.60;;;;;;;-5.26;100.00;92343.00;2132246;27;20027;-73
2022/12/08 03:23:57;;;;;;;7.93;2.90;;;;;;;-5.26;100.00;92340.41;2123600;27;20033;-73
2022/12/08 03:24:59;;;;;;;4.25;2.92;;;;;;;-5.24;100.00;92330.38;2123826;27;20429;-73
2022/12/08 03:26:07;;;;;;;4.97;2.80;;;;;;;-5.24;100.00;92340.81;2123945;27;20027;-73
2022/12/08 03:27:18;;;;;;;3.90;2.65;;;;;;;-5.17;100.00;92337.63;2123172;27;20042;-73
2022/12/08 03:28:21;;;;;;;7.43;2.78;;;;;;;-5.24;100.00;92340.81;2127390;27;20750;-73
2022/12/08 03:29:23;;;;;;;4.35;2.88;;;;;;;-5.26;100.00;92345.59;2131540;27;20019;-73
2022/12/08 03:30:26;;;;;;;6.90;3.70;;;;;;;-5.35;100.00;92332.75;2131696;27;20023;-74
2022/12/08 03:31:36;;;;;;;5.25;3.15;;;;;;;-5.26;100.00;92335.19;2132289;27;20026;-74
2022/12/08 03:32:46;;;;;;;;;;;;;;;-5.20;100.00;92330.47;2131481;27;20050;-73
2022/12/08 03:33:51;;;;;;;3.42;2.72;;;;;;;-5.15;100.00;92330.22;2123925;27;19911;-73
2022/12/08 03:34:53;;;;;;;4.47;2.72;;;;;;;-5.14;100.00;92326.50;2126433;27;20030;-73
2022/12/08 03:35:54;;;;;;;4.68;2.55;;;;;;;-5.15;100.00;92325.75;2131658;27;20022;-72
2022/12/08 03:36:55;;;;;;;5.50;2.80;;;;;;;-5.13;100.00;92323.59;2131271;27;20026;-73
2022/12/08 03:38:13;;;;;;;5.18;3.05;;;;;;;-5.10;100.00;92316.94;2132061;27;20087;-73
2022/12/08 03:39:14;;;;;;;4.55;2.85;;;;;;;-5.03;100.00;92316.34;2123676;27;20063;-73
2022/12/08 03:40:18;;;;;;;3.88;2.65;;;;;;;-5.10;100.00;92315.09;2122521;27;20027;-74
2022/12/08 03:41:21;;;;;;;4.00;2.63;;;;;;;-5.03;100.00;92318.97;2122801;27;20027;-74
2022/12/08 03:42:22;;;;;;;4.30;2.92;;;;;;;-5.11;100.00;92303.16;2122855;27;20027;-74
2022/12/08 03:43:23;;;;;;;6.95;2.90;;;;;;;-5.05;100.00;92306.25;2122741;27;20652;-74
2022/12/08 03:44:24;;;;;;;3.72;2.80;;;;;;;-5.06;100.00;92304.75;2123701;27;20064;-74
2022/12/08 03:45:25;;;;;;;6.45;3.28;;;;;;;-4.83;100.00;92305.66;2123610;27;20096;-73
2022/12/08 03:46:29;;;;;;;5.93;3.17;;;;;;;-4.77;100.00;92300.94;2123262;27;20485;-73
2022/12/08 03:47:30;;;;;;;5.65;3.40;;;;;;;-4.85;100.00;92304.47;2125058;27;20027;-74
2022/12/08 03:48:31;;;;;;;5.22;3.10;;;;;;;-4.85;100.00;92296.66;2132264;27;20050;-76
2022/12/08 03:49:32;;;;;;;4.07;3.13;;;;;;;-4.85;100.00;92301.88;2123981;27;20054;-73
2022/12/08 03:50:33;;;;;;;4.78;3.17;;;;;;;-4.91;100.00;92301.38;2124300;27;20030;-74
2022/12/08 03:51:33;;;;;;;6.15;3.25;;;;;;;-5.02;100.00;92299.63;2131757;27;20417;-75
2022/12/08 03:52:34;;;;;;;5.43;2.80;;;;;;;-5.01;100.00;92303.72;2132151;27;20471;-75
2022/12/08 03:53:36;;;;;;;5.63;3.25;;;;;;;-5.09;100.00;92298.38;2131515;27;20084;-74
2022/12/08 03:54:37;;;;;;;4.82;2.85;;;;;;;-5.03;100.00;92298.13;2124622;27;20027;-74
2022/12/08 03:55:37;;;;;;;5.22;2.97;;;;;;;-5.03;100.00;92306.69;2123554;27;20049;-74
2022/12/08 03:56:38;;;;;;;4.25;2.78;;;;;;;-5.15;100.00;92307.53;2123602;27;20019;-74
2022/12/08 03:57:39;;;;;;;4.78;3.13;;;;;;;-5.09;100.00;92308.06;2123267;27;20023;-73
2022/12/08 03:58:41;;;;;;;4.68;2.88;;;;;;;-4.92;100.00;92307.66;2123432;27;20081;-72
2022/12/08 03:59:42;;;;;;;4.40;2.67;;;;;;;-4.66;100.00;92306.38;2128434;27;20063;-73
2022/12/08 04:00:43;;;;;;;5.05;3.15;;;;;;;-4.68;100.00;92298.13;2126291;27;20038;-75
2022/12/08 04:01:44;;;;;;;4.28;2.92;;;;;;;-4.73;100.00;92304.38;2114334;28;20020;-73
2022/12/08 04:02:45;;;;;;;3.85;2.75;;;;;;;-4.68;100.00;92301.50;2114208;28;20024;-74
2022/12/08 04:03:47;;;;;;;4.20;2.78;;;;;;;-4.63;100.00;92293.41;2114119;28;20034;-74
2022/12/08 04:04:48;;;;;;;4.93;3.25;;;;;;;-4.74;100.00;92295.06;2118775;27;20101;-75
2022/12/08 04:05:48;;;;;;;3.67;2.60;;;;;;;-4.72;100.00;92295.44;2122624;27;20380;-75
2022/12/08 04:06:50;;;;;;;3.70;3.10;;;;;;;-4.72;100.00;92292.09;2122413;27;20058;-72
2022/12/08 04:07:51;;;;;;;4.25;2.78;;;;;;;-4.70;100.00;92298.47;2123102;27;20015;-72
2022/12/08 04:08:52;;;;;;;4.90;3.08;;;;;;;-4.75;100.00;92292.75;2123506;27;20027;-74
2022/12/08 04:09:53;;;;;;;4.88;3.17;;;;;;;-4.74;100.00;92297.66;2123448;27;20483;-73
2022/12/08 04:10:54;;;;;;;4.15;2.45;;;;;;;-4.78;100.00;92289.00;2130290;27;20019;-73
2022/12/08 04:11:55;;;;;;;3.67;3.00;;;;;;;-4.77;100.00;92289.75;2132080;27;20023;-74
2022/12/08 04:12:56;;;;;;;4.68;2.90;;;;;;;-4.76;100.00;92280.84;2131588;27;20471;-76
2022/12/08 04:13:57;;;;;;;3.95;2.90;;;;;;;-4.73;100.00;92282.78;2131316;27;20030;-74
2022/12/08 04:14:58;;;;;;;3.75;2.88;;;;;;;-4.61;100.00;92285.25;2128347;27;20035;-74
2022/12/08 04:16:00;;;;;;;4.15;3.08;;;;;;;-4.58;100.00;92281.97;2123541;27;20023;-77
2022/12/08 04:17:01;;;;;;;5.13;2.92;;;;;;;-4.56;100.00;92280.53;2123381;27;20047;-74
2022/12/08 04:18:02;;;;;;;4.88;2.90;;;;;;;-4.57;100.00;92279.00;2129409;27;20042;-72
2022/12/08 04:19:03;;;;;;;4.40;3.00;;;;;;;-4.61;100.00;92278.19;2131127;27;20027;-73
2022/12/08 04:20:04;;;;;;;4.15;2.83;;;;;;;-4.72;100.00;92284.28;2133237;27;20019;-73
2022/12/08 04:21:05;;;;;;;5.20;3.00;;;;;;;-4.74;100.00;92278.63;2140506;27;20037;-73
2022/12/08 04:22:06;;;;;;;4.38;3.22;;;;;;;-4.78;100.00;92281.19;2140619;27;20356;-73
2022/12/08 04:23:08;;;;;;;4.68;2.90;;;;;;;-4.77;100.00;92274.88;2139715;27;20034;-72
2022/12/08 04:24:09;;;;;;;4.32;2.90;;;;;;;-4.74;100.00;92276.81;2140088;27;20025;-73
2022/12/08 04:25:10;;;;;;;3.95;2.83;;;;;;;-4.71;100.00;92275.34;2138533;27;20056;-73
2022/12/08 04:26:12;;;;;;;3.35;2.78;;;;;;;-4.73;100.00;92272.34;2131281;27;20043;-73
2022/12/08 04:27:13;;;;;;;3.63;2.78;;;;;;;-4.74;100.00;92279.41;2131642;27;20404;-73
2022/12/08 04:28:15;;;;;;;5.13;2.90;;;;;;;-4.68;100.00;92275.44;2131939;27;20030;-73
2022/12/08 04:29:16;;;;;;;3.72;2.55;;;;;;;-4.67;100.00;92268.38;2122342;27;20053;-73
2022/12/08 04:30:17;;;;;;;4.32;2.80;;;;;;;-4.66;100.00;92275.84;2123292;27;20052;-73
2022/12/08 04:31:18;;;;;;;3.33;2.60;;;;;;;-4.69;100.00;92275.78;2131466;27;20079;-73
2022/12/08 04:32:19;;;;;;;7.22;3.28;;;;;;;-4.67;100.00;92276.19;2131650;27;20022;-73
2022/12/08 04:33:20;;;;;;;4.13;2.95;;;;;;;-4.86;100.00;92269.84;2131510;27;20402;-73
2022/12/08 04:34:21;;;;;;;4.88;2.90;;;;;;;-4.81;100.00;92274.03;2131622;27;20037;-73
2022/12/08 04:35:22;;;;;;;5.45;3.17;;;;;;;-4.79;100.00;92271.09;2138610;27;20109;-73
2022/12/08 04:36:23;;;;;;;4.50;2.70;;;;;;;-4.85;100.00;92275.81;2140554;27;20026;-73
2022/12/08 04:37:24;;;;;;;3.95;2.95;;;;;;;-4.96;100.00;92269.59;2140083;27;20452;-73
2022/12/08 04:38:25;;;;;;;6.40;3.47;;;;;;;-4.96;100.00;92267.78;2137256;27;20014;-73
2022/12/08 04:39:26;;;;;;;4.18;2.83;;;;;;;-4.90;100.00;92263.03;2131286;27;20062;-73
2022/12/08 04:40:27;;;;;;;5.43;4.13;;;;;;;-4.90;100.00;92266.41;2131885;27;20031;-73
2022/12/08 04:41:28;;;;;;;4.95;3.92;;;;;;;-4.94;100.00;92270.03;2140375;27;20018;-73
2022/12/08 04:42:29;;;;;;;5.28;4.45;;;;;;;-4.95;100.00;92266.66;2140385;27;20015;-73
2022/12/08 04:43:30;;;;;;;5.75;3.97;;;;;;;-5.05;100.00;92259.34;2139787;27;20058;-74
2022/12/08 04:44:31;;;;;;;5.80;4.07;;;;;;;-5.09;100.00;92271.56;2140071;27;20014;-73
2022/12/08 04:45:32;;;;;;;4.88;3.95;;;;;;;-5.08;100.00;92263.41;2130705;27;20026;-73
2022/12/08 04:46:33;;;;;;;5.15;3.92;;;;;;;-5.08;100.00;92262.66;2122456;27;20461;-73
2022/12/08 04:47:34;;;;;;;5.00;4.00;;;;;;;-5.26;100.00;92257.06;2131022;27;20097;-73
2022/12/08 04:48:37;;;;;;;5.50;4.20;;;;;;;-5.27;100.00;92260.72;2131670;27;20014;-73
2022/12/08 04:49:38;;;;;;;4.70;3.72;;;;;;;-5.30;100.00;92253.63;2130994;27;20030;-73
2022/12/08 04:50:41;;;;;;;3.80;3.28;;;;;;;-5.51;100.00;92266.13;2135723;27;20014;-73
2022/12/08 04:51:42;;;;;;;5.28;3.10;;;;;;;-5.19;100.00;92253.84;2122474;27;20418;-73
2022/12/08 04:52:43;;;;;;;4.68;3.35;;;;;;;-5.12;100.00;92256.63;2122303;27;20031;-73
2022/12/08 04:53:45;;;;;;;5.85;2.85;;;;;;;-5.16;100.00;92253.94;2131507;27;20069;-73
2022/12/08 04:54:46;;;;;;;6.13;3.10;;;;;;;-5.35;100.00;92257.22;2131380;27;20022;-73
2022/12/08 04:55:48;;;;;;;4.78;3.03;;;;;;;-5.41;100.00;92257.81;2131431;27;20084;-73
2022/12/08 04:56:49;;;;;;;4.47;2.53;;;;;;;-5.42;100.00;92251.84;2138329;27;20034;-73
2022/12/08 04:57:50;;;;;;;4.65;3.15;;;;;;;-5.44;100.00;92254.03;2140016;27;20579;-73
2022/12/08 04:58:51;;;;;;;4.40;2.88;;;;;;;-5.48;100.00;92255.06;2140192;27;20099;-73
2022/12/08 04:59:52;;;;;;;4.00;2.67;;;;;;;-5.46;100.00;92255.47;2130713;27;20027;-73
2022/12/08 05:00:53;;;;;;;4.03;2.78;;;;;;;-5.52;100.00;92254.97;2131085;27;20389;-73
2022/12/08 05:01:54;;;;;;;3.83;2.78;;;;;;;-5.59;100.00;92258.16;2132739;27;20441;-73
2022/12/08 05:02:55;;;;;;;3.65;2.50;;;;;;;-5.61;100.00;92255.13;2131225;27;20457;-73
2022/12/08 05:03:56;;;;;;;2.90;2.28;;;;;;;-5.42;100.00;92258.91;2131226;27;20092;-73
2022/12/08 05:04:57;;;;;;;3.08;2.45;;;;;;;-5.45;100.00;92256.97;2131465;27;20042;-73
2022/12/08 05:05:59;;;;;;;5.13;2.60;;;;;;;-5.60;100.00;92264.44;2131513;27;20023;-73
2022/12/08 05:07:00;;;;;;;4.40;2.38;;;;;;;-5.70;100.00;92256.41;2136347;27;20421;-73